createdAt,value
2017-11-06T00:01:01.447Z,5.80
2017-11-06T00:03:29.755Z,5.80
2017-11-06T00:05:58.043Z,5.80
2017-11-06T00:08:26.359Z,5.80
2017-11-06T00:10:54.650Z,5.80
2017-11-06T00:13:23.014Z,5.70
2017-11-06T00:15:52.076Z,5.70
2017-11-06T00:18:20.373Z,5.60
2017-11-06T00:20:48.702Z,5.60
2017-11-06T00:23:17.033Z,5.60
2017-11-06T00:25:45.366Z,5.60
2017-11-06T00:28:13.665Z,5.50
2017-11-06T00:30:41.978Z,5.50
2017-11-06T00:33:10.327Z,5.50
2017-11-06T00:35:39.380Z,5.40
2017-11-06T00:38:07.707Z,5.30
2017-11-06T00:40:36.112Z,5.40
2017-11-06T00:43:04.402Z,5.40
2017-11-06T00:45:32.684Z,5.40
2017-11-06T00:48:01.906Z,5.40
2017-11-06T00:50:30.204Z,5.40
2017-11-06T00:52:59.254Z,5.40
2017-11-06T00:55:27.601Z,5.40
2017-11-06T00:57:55.928Z,5.40
2017-11-06T01:00:24.995Z,5.40
2017-11-06T01:02:53.366Z,5.30
2017-11-06T01:05:22.430Z,5.40
2017-11-06T01:07:50.716Z,5.30
2017-11-06T01:10:19.131Z,5.30
2017-11-06T01:12:47.492Z,5.30
2017-11-06T01:15:15.826Z,5.30
2017-11-06T01:17:44.129Z,5.30
2017-11-06T01:20:12.431Z,5.20
2017-11-06T01:22:40.755Z,5.20
2017-11-06T01:25:09.098Z,5.20
2017-11-06T01:27:38.179Z,5.10
2017-11-06T01:30:06.475Z,5.10
2017-11-06T01:32:34.823Z,5.10
2017-11-06T01:35:04.003Z,5.00
2017-11-06T01:37:32.332Z,5.00
2017-11-06T01:40:01.372Z,4.90
2017-11-06T01:42:29.753Z,4.90
2017-11-06T01:44:58.872Z,4.90
2017-11-06T01:47:28.162Z,4.80
2017-11-06T01:49:56.467Z,4.80
2017-11-06T01:52:24.772Z,4.80
2017-11-06T01:54:53.079Z,4.80
2017-11-06T01:57:21.389Z,4.80
2017-11-06T01:59:50.725Z,4.80
2017-11-06T02:02:19.828Z,4.70
2017-11-06T02:04:48.218Z,4.70
2017-11-06T02:07:16.579Z,4.70
2017-11-06T02:09:44.933Z,4.60
2017-11-06T02:12:13.289Z,4.50
2017-11-06T02:14:41.636Z,4.50
2017-11-06T02:17:12.347Z,4.50
2017-11-06T02:19:40.805Z,4.40
2017-11-06T02:22:09.419Z,4.40
2017-11-06T02:24:37.745Z,4.30
2017-11-06T02:27:06.027Z,4.30
2017-11-06T02:29:34.339Z,4.30
2017-11-06T02:32:02.665Z,4.20
2017-11-06T02:34:31.736Z,4.20
2017-11-06T02:37:00.096Z,4.10
2017-11-06T02:39:29.165Z,4.20
2017-11-06T02:41:57.451Z,4.10
2017-11-06T02:44:25.803Z,4.20
2017-11-06T02:46:55.088Z,4.20
2017-11-06T02:49:23.408Z,4.20
2017-11-06T02:51:51.709Z,4.20
2017-11-06T02:54:20.008Z,4.20
2017-11-06T02:56:48.307Z,4.10
2017-11-06T02:59:16.590Z,4.10
2017-11-06T03:01:52.395Z,4.10
2017-11-06T03:04:21.467Z,4.00
2017-11-06T03:06:49.753Z,4.00
2017-11-06T03:09:18.838Z,4.00
2017-11-06T03:12:06.919Z,4.00
2017-11-06T03:14:35.228Z,3.90
2017-11-06T03:17:03.504Z,3.90
2017-11-06T03:19:31.824Z,3.90
2017-11-06T03:22:00.907Z,3.80
2017-11-06T03:24:29.226Z,3.80
2017-11-06T03:26:57.526Z,3.80
2017-11-06T03:29:25.819Z,3.80
2017-11-06T03:31:54.156Z,3.80
2017-11-06T03:34:22.489Z,3.60
2017-11-06T03:36:50.813Z,3.60
2017-11-06T03:39:19.108Z,3.60
2017-11-06T03:41:47.439Z,3.60
2017-11-06T03:44:15.743Z,3.40
2017-11-06T03:46:44.067Z,3.40
2017-11-06T03:49:13.152Z,3.30
2017-11-06T03:51:43.462Z,3.20
2017-11-06T03:54:11.748Z,3.20
2017-11-06T03:56:40.076Z,3.20
2017-11-06T03:59:08.372Z,3.20
2017-11-06T04:01:36.710Z,3.20
2017-11-06T04:04:05.036Z,3.20
2017-11-06T04:06:39.527Z,3.20
2017-11-06T04:09:07.835Z,3.10
2017-11-06T04:11:36.895Z,3.20
2017-11-06T04:14:05.209Z,3.20
2017-11-06T04:16:34.291Z,3.20
2017-11-06T04:19:02.596Z,3.20
2017-11-06T04:21:30.914Z,3.20
2017-11-06T04:23:59.251Z,3.10
2017-11-06T04:26:35.579Z,3.10
2017-11-06T04:29:03.903Z,3.10
2017-11-06T04:31:39.119Z,3.10
2017-11-06T04:34:10.153Z,3.00
2017-11-06T04:36:39.463Z,2.90
2017-11-06T04:39:07.753Z,2.90
2017-11-06T04:41:36.419Z,2.80
2017-11-06T04:44:04.706Z,2.80
2017-11-06T04:46:33.032Z,2.70
2017-11-06T04:49:03.283Z,2.70
2017-11-06T04:51:31.591Z,2.70
2017-11-06T04:53:59.919Z,2.70
2017-11-06T04:56:28.239Z,2.60
2017-11-06T04:58:58.267Z,2.70
2017-11-06T05:01:26.576Z,2.60
2017-11-06T05:03:54.853Z,2.70
2017-11-06T05:06:23.177Z,2.70
2017-11-06T05:08:51.512Z,2.60
2017-11-06T05:11:19.855Z,2.50
2017-11-06T05:13:49.920Z,2.50
2017-11-06T05:16:18.263Z,2.40
2017-11-06T05:18:46.588Z,2.40
2017-11-06T05:21:14.884Z,2.30
2017-11-06T05:23:43.244Z,2.30
2017-11-06T05:26:11.577Z,2.40
2017-11-06T05:28:40.652Z,2.40
2017-11-06T05:31:08.951Z,2.30
2017-11-06T05:33:37.334Z,2.40
2017-11-06T05:36:05.621Z,2.40
2017-11-06T05:38:33.951Z,2.50
2017-11-06T05:41:02.266Z,2.50
2017-11-06T05:43:30.567Z,2.50
2017-11-06T05:45:58.894Z,2.50
2017-11-06T05:48:27.971Z,2.50
2017-11-06T05:50:56.343Z,2.40
2017-11-06T05:53:24.670Z,2.40
2017-11-06T05:55:52.967Z,2.50
2017-11-06T05:58:21.323Z,2.50
2017-11-06T06:00:50.398Z,2.60
2017-11-06T06:03:18.744Z,2.50
2017-11-06T06:05:47.044Z,2.50
2017-11-06T06:08:16.127Z,2.50
2017-11-06T06:10:44.437Z,2.50
2017-11-06T06:13:12.772Z,2.50
2017-11-06T06:15:41.124Z,2.50
2017-11-06T06:18:11.515Z,2.40
2017-11-06T06:20:39.942Z,2.40
2017-11-06T06:23:08.341Z,2.40
2017-11-06T06:25:37.431Z,2.30
2017-11-06T06:28:05.765Z,2.20
2017-11-06T06:30:34.068Z,2.30
2017-11-06T06:33:03.139Z,2.30
2017-11-06T06:35:31.475Z,2.20
2017-11-06T06:38:19.127Z,2.30
2017-11-06T06:40:49.347Z,2.30
2017-11-06T06:43:17.655Z,2.30
2017-11-06T06:45:45.980Z,2.30
2017-11-06T06:48:14.335Z,2.30
2017-11-06T06:50:42.654Z,2.30
2017-11-06T06:53:11.015Z,2.30
2017-11-06T06:55:39.355Z,2.30
2017-11-06T06:58:07.655Z,2.30
2017-11-06T07:00:35.975Z,2.20
2017-11-06T07:03:04.255Z,2.30
2017-11-06T07:05:32.603Z,2.20
2017-11-06T07:08:01.652Z,2.40
2017-11-06T07:10:29.967Z,2.30
2017-11-06T07:12:58.310Z,2.50
2017-11-06T07:15:27.407Z,2.80
2017-11-06T07:17:56.184Z,2.80
2017-11-06T07:20:24.515Z,3.00
2017-11-06T07:22:52.819Z,3.20
2017-11-06T07:25:21.137Z,3.50
2017-11-06T07:27:49.435Z,3.60
2017-11-06T07:30:17.765Z,3.70
2017-11-06T07:32:49.108Z,3.80
2017-11-06T07:35:17.448Z,3.90
2017-11-06T07:37:45.772Z,4.00
2017-11-06T07:40:15.028Z,4.00
2017-11-06T07:42:44.152Z,4.00
2017-11-06T07:45:12.532Z,4.00
2017-11-06T07:47:40.914Z,4.10
2017-11-06T07:50:10.201Z,4.10
2017-11-06T07:52:39.414Z,4.20
2017-11-06T07:55:07.896Z,4.60
2017-11-06T07:57:36.191Z,4.90
2017-11-06T08:00:04.503Z,5.40
2017-11-06T08:02:32.840Z,5.90
2017-11-06T08:05:01.947Z,6.80
2017-11-06T08:07:30.264Z,6.80
2017-11-06T08:09:59.344Z,7.60
2017-11-06T08:12:37.871Z,7.50
2017-11-06T08:15:06.198Z,7.80
2017-11-06T08:17:34.516Z,8.00
2017-11-06T08:20:02.848Z,8.20
2017-11-06T08:22:32.058Z,8.90
2017-11-06T08:25:00.349Z,8.90
2017-11-06T08:27:28.682Z,9.40
2017-11-06T08:29:57.747Z,9.80
2017-11-06T08:32:26.047Z,9.80
2017-11-06T08:34:54.385Z,10.10
2017-11-06T08:37:22.688Z,10.30
2017-11-06T08:39:51.758Z,10.50
2017-11-06T08:42:20.100Z,10.40
2017-11-06T08:44:48.447Z,10.60
2017-11-06T08:47:16.825Z,10.80
2017-11-06T08:49:45.941Z,11.20
2017-11-06T08:52:14.293Z,11.20
2017-11-06T08:54:42.584Z,11.30
2017-11-06T08:57:10.914Z,10.80
2017-11-06T08:59:39.263Z,10.80
2017-11-06T09:02:07.941Z,10.80
2017-11-06T09:04:36.220Z,11.00
2017-11-06T09:07:06.331Z,11.50
2017-11-06T09:09:35.443Z,11.50
2017-11-06T09:12:04.514Z,11.50
2017-11-06T09:14:32.800Z,11.50
2017-11-06T09:17:01.165Z,11.80
2017-11-06T09:19:31.160Z,12.00
2017-11-06T09:21:59.479Z,12.00
2017-11-06T09:24:27.800Z,12.00
2017-11-06T09:26:56.131Z,12.10
2017-11-06T09:29:25.211Z,12.20
2017-11-06T09:31:53.540Z,12.20
2017-11-06T09:34:22.613Z,12.30
2017-11-06T09:36:51.034Z,12.30
2017-11-06T09:39:19.435Z,12.40
2017-11-06T09:41:48.556Z,12.40
2017-11-06T09:44:16.871Z,12.40
2017-11-06T09:46:46.930Z,12.00
2017-11-06T09:49:15.232Z,12.00
2017-11-06T09:51:43.564Z,11.60
2017-11-06T09:54:13.606Z,11.50
2017-11-06T09:56:42.659Z,11.80
2017-11-06T09:59:11.028Z,11.80
2017-11-06T10:01:39.404Z,11.90
2017-11-06T10:04:07.740Z,12.10
2017-11-06T10:06:36.869Z,12.50
2017-11-06T10:09:05.193Z,12.50
2017-11-06T10:11:33.528Z,12.70
2017-11-06T10:14:01.878Z,12.40
2017-11-06T10:16:30.193Z,12.20
2017-11-06T10:18:58.500Z,12.10
2017-11-06T10:21:26.821Z,11.80
2017-11-06T10:23:55.145Z,11.60
2017-11-06T10:26:23.468Z,11.60
2017-11-06T10:28:51.760Z,11.60
2017-11-06T10:31:20.071Z,11.70
2017-11-06T10:33:49.168Z,11.30
2017-11-06T10:36:17.517Z,11.30
2017-11-06T10:38:45.828Z,10.90
2017-11-06T10:41:14.132Z,10.50
2017-11-06T10:43:42.458Z,10.40
2017-11-06T10:46:10.816Z,10.30
2017-11-06T10:48:39.148Z,10.60
2017-11-06T10:51:07.450Z,10.40
2017-11-06T10:53:35.765Z,10.20
2017-11-06T10:56:04.141Z,10.10
2017-11-06T10:58:32.531Z,10.20
2017-11-06T11:01:00.862Z,10.30
2017-11-06T11:03:29.224Z,10.90
2017-11-06T11:05:58.418Z,11.10
2017-11-06T11:08:26.741Z,11.10
2017-11-06T11:10:55.880Z,11.40
2017-11-06T11:13:24.186Z,11.40
2017-11-06T11:15:52.481Z,11.10
2017-11-06T11:18:20.803Z,11.00
2017-11-06T11:20:49.173Z,10.80
2017-11-06T11:23:17.537Z,10.70
2017-11-06T11:25:45.876Z,10.60
2017-11-06T11:28:14.196Z,10.40
2017-11-06T11:30:43.279Z,10.30
2017-11-06T11:33:11.585Z,10.30
2017-11-06T11:35:40.924Z,10.30
2017-11-06T11:38:09.286Z,9.80
2017-11-06T11:40:37.675Z,9.60
2017-11-06T11:43:05.994Z,9.70
2017-11-06T11:45:34.276Z,9.70
2017-11-06T11:48:02.637Z,9.80
2017-11-06T11:50:30.975Z,9.70
2017-11-06T11:52:59.363Z,9.60
2017-11-06T11:58:01.145Z,9.50
2017-11-06T12:00:29.461Z,9.50
2017-11-06T12:02:57.732Z,9.50
2017-11-06T12:05:26.048Z,9.20
2017-11-06T12:07:54.386Z,9.10
2017-11-06T12:10:23.431Z,9.10
2017-11-06T12:12:51.791Z,9.00
2017-11-06T12:15:20.120Z,9.00
2017-11-06T12:18:00.225Z,8.90
2017-11-06T12:20:28.547Z,8.90
2017-11-06T12:22:56.866Z,8.80
2017-11-06T12:25:25.149Z,8.60
2017-11-06T12:27:53.438Z,8.50
2017-11-06T12:30:21.759Z,8.50
2017-11-06T12:32:50.075Z,8.50
2017-11-06T12:35:18.374Z,8.40
2017-11-06T12:37:46.696Z,8.40
2017-11-06T12:40:14.996Z,8.30
2017-11-06T12:42:51.642Z,8.30
2017-11-06T12:45:19.949Z,8.20
2017-11-06T12:47:48.232Z,8.20
2017-11-06T12:50:16.567Z,8.20
2017-11-06T12:52:45.607Z,8.20
2017-11-06T12:55:13.965Z,8.20
2017-11-06T12:57:42.329Z,8.30
2017-11-06T13:00:10.698Z,8.30
2017-11-06T13:02:39.751Z,8.30
2017-11-06T13:05:08.070Z,8.30
2017-11-06T13:07:36.359Z,8.30
2017-11-06T13:10:04.694Z,8.40
2017-11-06T13:12:32.967Z,8.40
2017-11-06T13:15:01.279Z,8.50
2017-11-06T13:17:29.615Z,8.50
2017-11-06T13:19:57.932Z,8.50
2017-11-06T13:22:32.730Z,8.40
2017-11-06T13:25:01.126Z,8.40
2017-11-06T13:27:29.399Z,8.50
2017-11-06T13:29:58.847Z,8.70
2017-11-06T13:32:27.221Z,8.50
2017-11-06T13:34:55.532Z,8.50
2017-11-06T13:37:23.850Z,8.50
2017-11-06T13:39:53.085Z,8.40
2017-11-06T13:42:21.380Z,8.40
2017-11-06T13:44:49.708Z,8.30
2017-11-06T13:47:18.023Z,8.30
2017-11-06T13:49:47.124Z,8.30
2017-11-06T13:52:15.464Z,8.30
2017-11-06T13:54:44.547Z,8.40
2017-11-06T13:57:12.832Z,8.40
2017-11-06T13:59:41.130Z,8.40
2017-11-06T14:02:09.527Z,8.40
2017-11-06T14:04:37.849Z,8.30
2017-11-06T14:07:06.193Z,8.40
2017-11-06T14:09:34.503Z,8.40
2017-11-06T14:12:02.803Z,8.40
2017-11-06T14:14:42.689Z,8.30
2017-11-06T14:17:11.026Z,8.30
2017-11-06T14:19:39.940Z,8.20
2017-11-06T14:22:08.669Z,8.20
2017-11-06T14:24:36.961Z,8.20
2017-11-06T14:27:06.239Z,8.20
2017-11-06T14:29:34.532Z,8.20
2017-11-06T14:32:02.817Z,8.20
2017-11-06T14:34:31.127Z,8.20
2017-11-06T14:36:59.439Z,8.30
2017-11-06T14:39:27.750Z,8.20
2017-11-06T14:41:56.072Z,8.20
2017-11-06T14:44:25.134Z,8.00
2017-11-06T14:46:53.545Z,8.00
2017-11-06T14:49:23.883Z,8.00
2017-11-06T14:51:52.203Z,8.00
2017-11-06T14:54:20.517Z,8.00
2017-11-06T14:56:48.868Z,8.00
2017-11-06T14:59:17.168Z,7.90
2017-11-06T15:01:46.256Z,7.90
2017-11-06T15:04:14.528Z,7.90
2017-11-06T15:06:42.915Z,7.80
2017-11-06T15:09:11.251Z,7.80
2017-11-06T15:11:39.598Z,7.80
2017-11-06T15:14:08.055Z,7.80
2017-11-06T15:16:40.648Z,7.70
2017-11-06T15:19:09.725Z,7.70
2017-11-06T15:21:38.041Z,7.60
2017-11-06T15:24:06.337Z,7.60
2017-11-06T15:26:34.632Z,7.50
2017-11-06T15:29:02.980Z,7.50
2017-11-06T15:31:31.276Z,7.40
2017-11-06T15:33:59.558Z,7.40
2017-11-06T15:36:27.910Z,7.30
2017-11-06T15:38:56.980Z,7.80
2017-11-06T15:41:25.264Z,7.20
2017-11-06T15:43:53.603Z,7.10
2017-11-06T15:46:21.932Z,7.10
2017-11-06T15:48:56.101Z,7.00
2017-11-06T15:51:24.404Z,6.90
2017-11-06T15:53:52.745Z,6.90
2017-11-06T15:56:21.034Z,6.80
2017-11-06T15:58:49.382Z,6.70
2017-11-06T16:01:17.681Z,6.70
2017-11-06T16:03:46.809Z,6.60
2017-11-06T16:06:15.905Z,6.50
2017-11-06T16:08:48.798Z,6.50
2017-11-06T16:11:17.075Z,6.50
2017-11-06T16:13:45.470Z,6.40
2017-11-06T16:16:15.783Z,6.40
2017-11-06T16:18:44.152Z,6.30
2017-11-06T16:21:12.509Z,6.30
2017-11-06T16:23:40.869Z,6.30
2017-11-06T16:26:09.756Z,6.20
2017-11-06T16:28:38.996Z,6.20
2017-11-06T16:31:07.362Z,6.10
2017-11-06T16:33:35.725Z,6.10
2017-11-06T16:36:04.036Z,6.00
2017-11-06T16:38:33.123Z,5.90
2017-11-06T16:41:01.508Z,5.90
2017-11-06T16:43:29.806Z,5.90
2017-11-06T16:45:58.128Z,5.80
2017-11-06T16:48:26.598Z,5.80
2017-11-06T16:50:54.896Z,5.70
2017-11-06T16:53:23.290Z,5.70
2017-11-06T16:56:02.076Z,5.70
2017-11-06T16:58:30.402Z,5.70
2017-11-06T17:00:58.697Z,5.70
2017-11-06T17:03:26.976Z,5.60
2017-11-06T17:05:55.311Z,5.60
2017-11-06T17:08:23.639Z,5.60
2017-11-06T17:10:52.705Z,5.50
2017-11-06T17:13:21.060Z,5.50
2017-11-06T17:15:51.078Z,5.50
2017-11-06T17:18:19.455Z,5.40
2017-11-06T17:20:48.699Z,5.50
2017-11-06T17:23:16.976Z,5.40
2017-11-06T17:25:45.300Z,5.40
2017-11-06T17:28:13.650Z,5.30
2017-11-06T17:30:42.032Z,5.20
2017-11-06T17:33:10.412Z,5.20
2017-11-06T17:35:39.768Z,5.20
2017-11-06T17:38:08.087Z,5.10
2017-11-06T17:40:36.482Z,5.10
2017-11-06T17:43:04.816Z,5.10
2017-11-06T17:45:34.053Z,5.00
2017-11-06T17:48:02.390Z,5.00
2017-11-06T17:50:30.698Z,5.00
2017-11-06T17:52:59.029Z,5.00
2017-11-06T17:55:27.312Z,5.00
2017-11-06T17:57:55.630Z,5.00
2017-11-06T18:00:29.621Z,5.00
2017-11-06T18:02:57.945Z,4.90
2017-11-06T18:05:26.272Z,4.90
2017-11-06T18:07:55.437Z,4.90
2017-11-06T18:10:23.767Z,4.90
2017-11-06T18:12:52.836Z,4.90
2017-11-06T18:15:21.160Z,4.80
2017-11-06T18:17:49.457Z,4.80
2017-11-06T18:20:17.761Z,4.90
2017-11-06T18:22:46.068Z,4.90
2017-11-06T18:25:14.394Z,5.00
2017-11-06T18:27:42.712Z,5.00
2017-11-06T18:30:11.049Z,5.00
2017-11-06T18:32:39.379Z,5.10
2017-11-06T18:35:09.673Z,5.10
2017-11-06T18:37:37.958Z,5.10
2017-11-06T18:40:06.284Z,5.10
2017-11-06T18:42:34.616Z,5.10
2017-11-06T18:45:06.927Z,5.20
2017-11-06T18:47:35.223Z,5.10
2017-11-06T18:50:03.544Z,5.00
2017-11-06T18:52:36.378Z,5.00
2017-11-06T18:55:05.464Z,5.00
2017-11-06T18:57:33.791Z,5.00
2017-11-06T19:00:02.927Z,5.00
2017-11-06T19:02:32.031Z,5.00
2017-11-06T19:05:00.339Z,5.00
2017-11-06T19:07:31.409Z,5.00
2017-11-06T19:10:00.451Z,5.00
2017-11-06T19:12:28.771Z,4.90
2017-11-06T19:14:57.100Z,4.90
2017-11-06T19:17:25.402Z,4.90
2017-11-06T19:19:53.708Z,4.90
2017-11-06T19:22:22.051Z,4.80
2017-11-06T19:24:50.403Z,4.80
2017-11-06T19:27:18.720Z,4.80
2017-11-06T19:29:49.167Z,4.70
2017-11-06T19:32:17.471Z,4.70
2017-11-06T19:34:47.729Z,4.60
2017-11-06T19:37:16.020Z,4.60
2017-11-06T19:39:44.416Z,4.60
2017-11-06T19:42:12.723Z,4.50
2017-11-06T19:44:41.083Z,4.50
2017-11-06T19:47:11.207Z,4.40
2017-11-06T19:49:43.430Z,4.30
2017-11-06T19:52:12.754Z,4.30
2017-11-06T19:54:42.977Z,4.30
2017-11-06T19:57:12.142Z,4.20
2017-11-06T19:59:40.423Z,4.10
2017-11-06T20:02:08.797Z,4.20
2017-11-06T20:04:43.975Z,4.10
2017-11-06T20:07:12.322Z,4.00
2017-11-06T20:09:41.759Z,4.00
2017-11-06T20:12:10.146Z,4.00
2017-11-06T20:14:38.459Z,4.00
2017-11-06T20:17:06.754Z,4.00
2017-11-06T20:19:35.086Z,3.90
2017-11-06T20:22:03.403Z,3.90
2017-11-06T20:24:31.675Z,3.80
2017-11-06T20:27:00.026Z,3.80
2017-11-06T20:29:28.396Z,3.80
2017-11-06T20:31:56.699Z,3.70
2017-11-06T20:34:27.758Z,3.60
2017-11-06T20:36:56.137Z,3.60
2017-11-06T20:39:24.468Z,3.60
2017-11-06T20:41:52.803Z,3.60
2017-11-06T20:44:21.118Z,3.50
2017-11-06T20:46:50.207Z,3.50
2017-11-06T20:49:18.494Z,3.50
2017-11-06T20:51:46.844Z,3.50
2017-11-06T20:54:15.173Z,3.50
2017-11-06T20:56:43.512Z,3.50
2017-11-06T20:59:11.872Z,3.50
2017-11-06T21:01:40.313Z,3.50
2017-11-06T21:04:08.719Z,3.50
2017-11-06T21:06:37.132Z,3.50
2017-11-06T21:09:05.611Z,3.50
2017-11-06T21:11:33.938Z,3.50
2017-11-06T21:14:02.349Z,3.50
2017-11-06T21:16:32.648Z,3.40
2017-11-06T21:19:01.018Z,3.40
2017-11-06T21:21:30.132Z,3.30
2017-11-06T21:23:58.427Z,3.20
2017-11-06T21:26:26.746Z,3.30
2017-11-06T21:28:55.859Z,3.20
2017-11-06T21:31:24.208Z,3.20
2017-11-06T21:33:53.250Z,3.10
2017-11-06T21:36:22.544Z,3.10
2017-11-06T21:39:02.249Z,3.10
2017-11-06T21:41:30.580Z,3.10
2017-11-06T21:44:02.871Z,3.10
2017-11-06T21:46:31.255Z,3.10
2017-11-06T21:48:59.535Z,3.20
2017-11-06T21:51:28.804Z,3.10
2017-11-06T21:53:58.160Z,3.10
2017-11-06T21:56:27.250Z,3.10
2017-11-06T21:58:55.577Z,3.00
2017-11-06T22:01:24.668Z,3.10
2017-11-06T22:03:52.989Z,3.00
2017-11-06T22:06:21.312Z,3.10
2017-11-06T22:08:50.367Z,3.00
2017-11-06T22:11:18.711Z,3.00
2017-11-06T22:13:47.003Z,3.00
2017-11-06T22:16:15.312Z,3.00
2017-11-06T22:18:43.727Z,2.90
2017-11-06T22:21:12.059Z,3.00
2017-11-06T22:23:41.119Z,2.90
2017-11-06T22:26:10.396Z,2.80
2017-11-06T22:28:38.709Z,2.90
2017-11-06T22:31:07.011Z,2.80
2017-11-06T22:33:35.374Z,2.80
2017-11-06T22:36:05.440Z,2.80
2017-11-06T22:38:34.615Z,2.70
2017-11-06T22:41:02.903Z,2.70
2017-11-06T22:43:31.191Z,2.70
2017-11-06T22:45:59.540Z,2.70
2017-11-06T22:48:27.894Z,2.70
2017-11-06T22:50:56.175Z,2.70
2017-11-06T22:53:24.482Z,2.70
2017-11-06T22:55:53.563Z,2.60
2017-11-06T22:58:21.896Z,2.60
2017-11-06T23:00:51.902Z,2.60
2017-11-06T23:03:20.235Z,2.60
2017-11-06T23:05:48.646Z,2.60
2017-11-06T23:08:17.738Z,2.60
2017-11-06T23:10:46.008Z,2.60
2017-11-06T23:13:14.358Z,2.60
2017-11-06T23:15:42.665Z,2.60
2017-11-06T23:18:10.980Z,2.60
2017-11-06T23:20:40.055Z,2.70
2017-11-06T23:23:08.368Z,2.60
2017-11-06T23:25:36.719Z,2.70
2017-11-06T23:28:05.029Z,2.70
2017-11-06T23:30:33.328Z,2.70
2017-11-06T23:33:01.674Z,2.70
2017-11-06T23:35:35.157Z,2.60
2017-11-06T23:38:03.589Z,2.60
2017-11-06T23:40:32.008Z,2.60
2017-11-06T23:43:00.338Z,2.70
2017-11-06T23:45:28.646Z,2.70
2017-11-06T23:47:57.742Z,2.60
2017-11-06T23:50:26.137Z,2.60
2017-11-06T23:52:54.584Z,2.60
2017-11-06T23:55:23.103Z,2.60
2017-11-06T23:57:51.536Z,2.60
